Algowood — VCTD — position and weather

sailwx.info

Track history (hours):
 
Tides and Currents Weather Stations Pressure Air Temp Water Temp Dewpoint Dewpoint Depression Visibility Wind Speed Wind Dir Waves Ship Positions

Algowood

Last reported at 2017-Jul-19 16:11 UTC. Time now 2017-Jul-21 06:28 UTC.
Position N 45°12' W 074°18'.

Length 223 m; draft 7 m.

Type: Cargo ship. MMSI: 316001802.

Date/timePositionNaut miles runAvg speedWind from/ knotsBaromVisibWave heightAir tempDewpointWater temp
2017-Jul-19 16:11N 45°12' W 074°18'7 8.6
2017-Jul-19 15:23N 45°14' W 074°09'5 7.4
2017-Jul-19 14:44N 45°13' W 074°02'4 8.2
2017-Jul-19 14:15N 45°16' W 073°57'2 8.3
2017-Jul-19 14:00N 45°18' W 073°56'1 1.6
2017-Jul-19 13:31N 45°18' W 073°56'1 1.4
2017-Jul-19 13:01N 45°19' W 073°55'0 0.4
2017-Jul-19 12:30N 45°19' W 073°55'1 2.3
2017-Jul-19 12:00N 45°20' W 073°54'4 8.1
2017-Jul-19 11:30N 45°22' W 073°49'4 8.3
2017-Jul-19 11:00N 45°24' W 073°44'3 6.1
2017-Jul-19 10:30N 45°25' W 073°40'3 5.6
2017-Jul-19 10:00N 45°24' W 073°36'1 2.8
2017-Jul-19 09:31N 45°24' W 073°34'0 0.8
2017-Jul-19 09:00N 45°24' W 073°33'2 4.3
2017-Jul-19 08:27N 45°26' W 073°30'2 5.6
2017-Jul-19 08:00N 45°28' W 073°30'2 2.1
2017-Jul-19 07:05N 45°30' W 073°31'0 1.3
2017-Jul-19 07:00N 45°30' W 073°31'13 6.0
2017-Jul-19 04:55N 45°42' W 073°27'  
2017-Jul-17 00:37N 45°33' W 073°31'2 7.1
2017-Jul-17 00:24N 45°31' W 073°32'2 2.1
2017-Jul-16 23:36N 45°30' W 073°31'0 0.7
2017-Jul-16 23:30N 45°29' W 073°31'1 2.2
2017-Jul-16 23:00N 45°28' W 073°30'3 5.3
2017-Jul-16 22:31N 45°26' W 073°30'3 5.3
2017-Jul-16 22:01N 45°24' W 073°33'0 1.0
2017-Jul-16 21:31N 45°24' W 073°34'1 1.7
2017-Jul-16 21:00N 45°24' W 073°35'2 4.3
2017-Jul-16 20:30N 45°24' W 073°38'3 5.4
2017-Jul-16 20:00N 45°25' W 073°42'4 7.0
2017-Jul-16 19:30N 45°24' W 073°47'611.3
2017-Jul-16 19:00N 45°20' W 073°53'2 4.2
2017-Jul-16 18:30N 45°19' W 073°55'1 1.1
2017-Jul-16 18:01N 45°18' W 073°55'0 0.7
2017-Jul-16 17:31N 45°18' W 073°56'1 2.3
2017-Jul-16 17:00N 45°17' W 073°56'4 6.8
2017-Jul-16 16:25N 45°14' W 073°60'5 9.5
2017-Jul-16 15:53N 45°14' W 074°07'4 7.6
2017-Jul-16 15:19N 45°14' W 074°13'  
2017-Jul-13 02:53N 45°30' W 083°18'410.5
2017-Jul-13 02:29N 45°33' W 083°22'510.4
2017-Jul-13 02:00N 45°37' W 083°27'510.6
2017-Jul-13 01:30N 45°41' W 083°33'610.6
2017-Jul-13 00:57N 45°45' W 083°38'36 9.7
2017-Jul-12 21:14N 46°14' W 084°10'310 8.6
2017-Jul-11 09:21N 47°01' W 091°36'3 8.7
2017-Jul-11 09:01N 47°00' W 091°40'0 0.8
2017-Jul-11 08:30N 47°01' W 091°40'0 0.0
2017-Jul-11 07:57N 47°01' W 091°40'0 0.0
2017-Jul-11 07:29N 47°01' W 091°40'0 0.0
2017-Jul-11 06:59N 47°01' W 091°40'0 0.0
2017-Jul-11 06:30N 47°01' W 091°40'0 0.0
2017-Jul-11 06:00N 47°01' W 091°40'0 0.0
2017-Jul-11 02:26N 47°01' W 091°40'0 0.0
2017-Jul-11 01:40N 47°01' W 091°40'0 0.0
2017-Jul-11 01:26N 47°01' W 091°40'0 0.0
2017-Jul-11 00:55N 47°01' W 091°40'0 0.0
2017-Jul-11 00:28N 47°01' W 091°40'0 0.0
2017-Jul-11 00:01N 47°01' W 091°40'0 0.0
2017-Jul-10 23:31N 47°01' W 091°40'0 0.0
2017-Jul-10 23:00N 47°01' W 091°40'0 0.0
2017-Jul-10 22:30N 47°01' W 091°40'0 0.0
2017-Jul-10 21:12N 47°01' W 091°40'0 0.0
2017-Jul-10 20:59N 47°01' W 091°40'0 0.0
2017-Jul-10 20:31N 47°01' W 091°40'1 1.4
2017-Jul-10 20:01N 47°00' W 091°40'1 1.9
2017-Jul-10 19:31N 47°00' W 091°39'0 0.1
2017-Jul-10 19:01N 47°00' W 091°39'0 0.0
2017-Jul-10 18:28N 47°00' W 091°39'0 0.0
2017-Jul-10 18:01N 47°00' W 091°39'0 0.0
2017-Jul-10 17:31N 47°00' W 091°39'0 0.1
2017-Jul-10 16:54N 47°00' W 091°39'0 0.0
2017-Jul-10 16:30N 47°00' W 091°39'0 0.0
2017-Jul-10 16:00N 47°00' W 091°39'0 0.0
2017-Jul-10 15:30N 47°00' W 091°39'0 0.1
2017-Jul-10 15:00N 47°00' W 091°39'0 0.1
2017-Jul-10 14:30N 47°00' W 091°39'0 0.1
2017-Jul-10 14:00N 47°00' W 091°39'0 0.1
2017-Jul-10 13:25N 47°00' W 091°39'0 0.1
2017-Jul-10 12:46N 47°00' W 091°39'0 0.1
2017-Jul-10 12:30N 47°00' W 091°39'0 0.3
2017-Jul-10 12:00N 47°00' W 091°39'  
Track history (hours):
 
Tides and Currents Weather Stations Pressure Air Temp Water Temp Dewpoint Dewpoint Depression Visibility Wind Speed Wind Dir Waves Ship Positions

Algowood

Last reported at 2017-Jul-19 16:11 UTC. Time now 2017-Jul-21 06:28 UTC.
Position N 45°12' W 074°18'.

Length 223 m; draft 7 m.

Type: Cargo ship. MMSI: 316001802.

Date/timePositionNaut miles runAvg speedWind from/ knotsBaromVisibWave heightAir tempDewpointWater temp
2017-Jul-19 16:11N 45°12' W 074°18'7 8.6
2017-Jul-19 15:23N 45°14' W 074°09'5 7.4
2017-Jul-19 14:44N 45°13' W 074°02'4 8.2
2017-Jul-19 14:15N 45°16' W 073°57'2 8.3
2017-Jul-19 14:00N 45°18' W 073°56'1 1.6
2017-Jul-19 13:31N 45°18' W 073°56'1 1.4
2017-Jul-19 13:01N 45°19' W 073°55'0 0.4
2017-Jul-19 12:30N 45°19' W 073°55'1 2.3
2017-Jul-19 12:00N 45°20' W 073°54'4 8.1
2017-Jul-19 11:30N 45°22' W 073°49'4 8.3
2017-Jul-19 11:00N 45°24' W 073°44'3 6.1
2017-Jul-19 10:30N 45°25' W 073°40'3 5.6
2017-Jul-19 10:00N 45°24' W 073°36'1 2.8
2017-Jul-19 09:31N 45°24' W 073°34'0 0.8
2017-Jul-19 09:00N 45°24' W 073°33'2 4.3
2017-Jul-19 08:27N 45°26' W 073°30'2 5.6
2017-Jul-19 08:00N 45°28' W 073°30'2 2.1
2017-Jul-19 07:05N 45°30' W 073°31'0 1.3
2017-Jul-19 07:00N 45°30' W 073°31'13 6.0
2017-Jul-19 04:55N 45°42' W 073°27'  
2017-Jul-17 00:37N 45°33' W 073°31'2 7.1
2017-Jul-17 00:24N 45°31' W 073°32'2 2.1
2017-Jul-16 23:36N 45°30' W 073°31'0 0.7
2017-Jul-16 23:30N 45°29' W 073°31'1 2.2
2017-Jul-16 23:00N 45°28' W 073°30'3 5.3
2017-Jul-16 22:31N 45°26' W 073°30'3 5.3
2017-Jul-16 22:01N 45°24' W 073°33'0 1.0
2017-Jul-16 21:31N 45°24' W 073°34'1 1.7
2017-Jul-16 21:00N 45°24' W 073°35'2 4.3
2017-Jul-16 20:30N 45°24' W 073°38'3 5.4
2017-Jul-16 20:00N 45°25' W 073°42'4 7.0
2017-Jul-16 19:30N 45°24' W 073°47'611.3
2017-Jul-16 19:00N 45°20' W 073°53'2 4.2
2017-Jul-16 18:30N 45°19' W 073°55'1 1.1
2017-Jul-16 18:01N 45°18' W 073°55'0 0.7
2017-Jul-16 17:31N 45°18' W 073°56'1 2.3
2017-Jul-16 17:00N 45°17' W 073°56'4 6.8
2017-Jul-16 16:25N 45°14' W 073°60'5 9.5
2017-Jul-16 15:53N 45°14' W 074°07'4 7.6
2017-Jul-16 15:19N 45°14' W 074°13'  
2017-Jul-13 02:53N 45°30' W 083°18'410.5
2017-Jul-13 02:29N 45°33' W 083°22'510.4
2017-Jul-13 02:00N 45°37' W 083°27'510.6
2017-Jul-13 01:30N 45°41' W 083°33'610.6
2017-Jul-13 00:57N 45°45' W 083°38'36 9.7
2017-Jul-12 21:14N 46°14' W 084°10'310 8.6
2017-Jul-11 09:21N 47°01' W 091°36'3 8.7
2017-Jul-11 09:01N 47°00' W 091°40'0 0.8
2017-Jul-11 08:30N 47°01' W 091°40'0 0.0
2017-Jul-11 07:57N 47°01' W 091°40'0 0.0
2017-Jul-11 07:29N 47°01' W 091°40'0 0.0
2017-Jul-11 06:59N 47°01' W 091°40'0 0.0
2017-Jul-11 06:30N 47°01' W 091°40'0 0.0
2017-Jul-11 06:00N 47°01' W 091°40'0 0.0
2017-Jul-11 02:26N 47°01' W 091°40'0 0.0
2017-Jul-11 01:40N 47°01' W 091°40'0 0.0
2017-Jul-11 01:26N 47°01' W 091°40'0 0.0
2017-Jul-11 00:55N 47°01' W 091°40'0 0.0
2017-Jul-11 00:28N 47°01' W 091°40'0 0.0
2017-Jul-11 00:01N 47°01' W 091°40'0 0.0
2017-Jul-10 23:31N 47°01' W 091°40'0 0.0
2017-Jul-10 23:00N 47°01' W 091°40'0 0.0
2017-Jul-10 22:30N 47°01' W 091°40'0 0.0
2017-Jul-10 21:12N 47°01' W 091°40'0 0.0
2017-Jul-10 20:59N 47°01' W 091°40'0 0.0
2017-Jul-10 20:31N 47°01' W 091°40'1 1.4
2017-Jul-10 20:01N 47°00' W 091°40'1 1.9
2017-Jul-10 19:31N 47°00' W 091°39'0 0.1
2017-Jul-10 19:01N 47°00' W 091°39'0 0.0
2017-Jul-10 18:28N 47°00' W 091°39'0 0.0
2017-Jul-10 18:01N 47°00' W 091°39'0 0.0
2017-Jul-10 17:31N 47°00' W 091°39'0 0.1
2017-Jul-10 16:54N 47°00' W 091°39'0 0.0
2017-Jul-10 16:30N 47°00' W 091°39'0 0.0
2017-Jul-10 16:00N 47°00' W 091°39'0 0.0
2017-Jul-10 15:30N 47°00' W 091°39'0 0.1
2017-Jul-10 15:00N 47°00' W 091°39'0 0.1
2017-Jul-10 14:30N 47°00' W 091°39'0 0.1
2017-Jul-10 14:00N 47°00' W 091°39'0 0.1
2017-Jul-10 13:25N 47°00' W 091°39'0 0.1
2017-Jul-10 12:46N 47°00' W 091°39'0 0.1
2017-Jul-10 12:30N 47°00' W 091°39'0 0.3
2017-Jul-10 12:00N 47°00' W 091°39'  

Dump ship's entire track history